Time;durP1;ratioP1;P1;durP2;ratioP2;P2;SDS_P1;SDS_P2;PMS_P1;PMS_P2;Temp;Humidity;BMP_temperature;BMP_pressure;BME280_temperature;BME280_humidity;BME280_pressure;Samples;Min_cycle;Max_cycle;Signal;HPM_P1;HPM_P2
2021/10/24 00:00:43;;;;;;;15.98;9.68;;;8.30;99.70;;;;;;5034182;28;20061;-86
2021/10/24 00:03:09;;;;;;;14.02;9.82;;;8.30;99.70;;;;;;5034855;28;20024;-87
2021/10/24 00:05:35;;;;;;;14.88;9.60;;;8.20;99.70;;;;;;5046444;28;20025;-86
2021/10/24 00:08:02;;;;;;;15.50;9.80;;;8.20;99.70;;;;;;5038756;28;20018;-87
2021/10/24 00:10:27;;;;;;;12.90;9.48;;;8.20;99.70;;;;;;5048312;28;20473;-91
2021/10/24 00:12:53;;;;;;;14.00;9.48;;;8.20;99.70;;;;;;5037214;28;20078;-92
2021/10/24 00:15:19;;;;;;;14.77;9.90;;;8.20;99.80;;;;;;5037333;28;20147;-91
2021/10/24 00:17:45;;;;;;;14.50;10.18;;;8.20;99.80;;;;;;5054242;28;20029;-89
2021/10/24 00:20:11;;;;;;;13.80;10.07;;;8.20;99.90;;;;;;5020540;28;20405;-92
2021/10/24 00:22:36;;;;;;;12.57;9.10;;;8.20;99.80;;;;;;5042228;28;20052;-90
2021/10/24 00:25:06;;;;;;;15.30;9.65;;;8.20;99.90;;;;;;5056690;23;20049;-82
2021/10/24 00:27:34;;;;;;;13.27;9.45;;;8.10;99.80;;;;;;4991797;28;20471;-82
2021/10/24 00:30:00;;;;;;;13.75;9.48;;;8.10;99.80;;;;;;5024309;28;20362;-82
2021/10/24 00:32:26;;;;;;;14.85;9.65;;;8.10;99.90;;;;;;5010712;28;20116;-82
2021/10/24 00:34:51;;;;;;;14.60;9.70;;;8.10;99.80;;;;;;5033168;28;20040;-84
2021/10/24 00:37:17;;;;;;;13.77;9.20;;;8.10;99.70;;;;;;5015423;28;20021;-85
2021/10/24 00:39:43;;;;;;;13.57;8.95;;;8.00;99.70;;;;;;5017327;28;20061;-85
2021/10/24 00:42:08;;;;;;;13.93;9.18;;;8.00;99.60;;;;;;5016556;28;20025;-85
2021/10/24 00:44:34;;;;;;;14.18;9.65;;;8.00;99.50;;;;;;5012596;28;20045;-85
2021/10/24 00:47:03;;;;;;;15.73;9.68;;;8.00;99.50;;;;;;5003037;28;20034;-87
2021/10/24 00:49:29;;;;;;;14.52;9.57;;;8.00;99.60;;;;;;4987276;28;20021;-87
2021/10/24 00:51:55;;;;;;;13.95;8.73;;;8.00;99.70;;;;;;4986630;28;20041;-87
2021/10/24 00:54:23;;;;;;;15.50;9.18;;;7.90;99.70;;;;;;5005480;28;20029;-87
2021/10/24 00:56:50;;;;;;;16.20;9.43;;;7.90;99.60;;;;;;5009437;28;20140;-82
2021/10/24 00:59:17;;;;;;;15.20;9.88;;;7.80;99.50;;;;;;5017257;28;20108;-82
2021/10/24 01:01:44;;;;;;;14.07;9.55;;;7.90;99.60;;;;;;5017306;28;20033;-81
2021/10/24 01:04:09;;;;;;;12.75;9.38;;;7.80;99.70;;;;;;5020039;28;20017;-82
2021/10/24 01:06:37;;;;;;;16.02;9.27;;;7.80;99.70;;;;;;5002238;28;20029;-81
2021/10/24 01:09:06;;;;;;;13.13;9.48;;;7.80;99.80;;;;;;5019705;28;20083;-82
2021/10/24 01:11:32;;;;;;;13.02;8.90;;;7.80;99.80;;;;;;5019738;28;20044;-82
2021/10/24 01:13:58;;;;;;;13.65;9.38;;;7.80;99.80;;;;;;5033739;28;20025;-81
2021/10/24 01:16:24;;;;;;;14.98;9.40;;;7.80;99.80;;;;;;5017023;28;20033;-81
2021/10/24 01:18:50;;;;;;;13.38;9.57;;;7.80;99.90;;;;;;5043893;28;20099;-82
2021/10/24 01:21:16;;;;;;;15.60;9.25;;;7.70;99.90;;;;;;5023187;28;20110;-82
2021/10/24 01:23:42;;;;;;;15.65;9.52;;;7.80;99.90;;;;;;5018934;28;20104;-85
2021/10/24 01:26:09;;;;;;;14.77;9.77;;;7.70;99.90;;;;;;5020243;28;20483;-87
2021/10/24 01:28:35;;;;;;;15.93;10.13;;;7.70;99.80;;;;;;5003916;28;20026;-88
2021/10/24 01:31:02;;;;;;;12.05;9.00;;;7.70;99.90;;;;;;5020258;28;20021;-88
2021/10/24 01:33:29;;;;;;;13.23;8.93;;;7.70;99.90;;;;;;5019091;28;20076;-88
2021/10/24 01:35:58;;;;;;;15.43;9.25;;;7.70;99.90;;;;;;5000183;28;20097;-88
2021/10/24 01:38:25;;;;;;;14.23;9.00;;;7.70;99.90;;;;;;5014021;28;20120;-88
2021/10/24 01:40:52;;;;;;;13.27;8.57;;;7.60;99.90;;;;;;5016235;28;20037;-88
2021/10/24 01:43:19;;;;;;;13.32;9.27;;;7.60;99.90;;;;;;5053526;28;20009;-85
2021/10/24 01:45:45;;;;;;;15.32;8.77;;;7.60;99.90;;;;;;5052508;28;20084;-81
2021/10/24 01:48:13;;;;;;;13.23;8.90;;;7.60;99.90;;;;;;5012811;28;20036;-81
2021/10/24 01:50:39;;;;;;;12.20;9.13;;;7.60;99.90;;;;;;5057703;28;20009;-82
2021/10/24 01:53:05;;;;;;;12.23;9.05;;;7.60;99.90;;;;;;5045074;28;20021;-82
2021/10/24 01:55:32;;;;;;;13.95;9.05;;;7.60;99.90;;;;;;5025367;28;20030;-82
2021/10/24 01:57:58;;;;;;;14.52;9.07;;;7.60;99.90;;;;;;5011386;28;20029;-82
2021/10/24 02:00:25;;;;;;;13.05;8.65;;;7.50;99.90;;;;;;5041191;28;20021;-82
2021/10/24 02:02:51;;;;;;;15.10;9.30;;;7.50;99.90;;;;;;5037704;28;20075;-82
2021/10/24 02:05:17;;;;;;;13.10;8.90;;;7.50;99.80;;;;;;5032550;28;20047;-82
2021/10/24 02:07:43;;;;;;;11.18;8.50;;;7.50;99.80;;;;;;5040311;28;20013;-82
2021/10/24 02:10:13;;;;;;;13.25;8.48;;;7.50;99.90;;;;;;5027933;28;20040;-82
2021/10/24 02:12:39;;;;;;;11.63;9.02;;;7.50;99.90;;;;;;5028109;28;20053;-82
2021/10/24 02:15:06;;;;;;;12.63;9.32;;;7.50;99.90;;;;;;5018661;28;20114;-82
2021/10/24 02:17:33;;;;;;;15.68;9.55;;;7.50;99.80;;;;;;5035226;28;20116;-82
2021/10/24 02:19:59;;;;;;;12.52;8.80;;;7.40;99.60;;;;;;5017614;28;20041;-82
2021/10/24 02:22:24;;;;;;;12.27;8.95;;;7.40;99.60;;;;;;5024283;28;20033;-82
2021/10/24 02:24:53;;;;;;;13.05;8.73;;;7.40;99.50;;;;;;5020455;28;20036;-82
2021/10/24 02:27:44;;;;;;;14.27;8.60;;;7.40;99.50;;;;;;5018470;28;20059;-87
2021/10/24 02:30:11;;;;;;;11.18;7.53;;;7.30;99.40;;;;;;5015155;28;20032;-87
2021/10/24 02:32:39;;;;;;;12.95;8.63;;;7.30;99.60;;;;;;5019422;28;20036;-88
2021/10/24 02:35:06;;;;;;;12.80;8.73;;;7.30;99.40;;;;;;5024342;28;20553;-87
2021/10/24 02:37:32;;;;;;;14.95;9.18;;;7.20;99.40;;;;;;4997071;28;20113;-87
2021/10/24 02:39:58;;;;;;;14.25;8.98;;;7.20;99.40;;;;;;5001723;28;20120;-87
2021/10/24 02:42:24;;;;;;;12.05;8.63;;;7.20;99.60;;;;;;5056513;28;20025;-87
2021/10/24 02:44:49;;;;;;;15.25;9.10;;;7.20;99.60;;;;;;5022154;28;20029;-87
2021/10/24 02:47:17;;;;;;;14.38;8.63;;;7.10;99.60;;;;;;5049125;28;20048;-87
2021/10/24 02:49:43;;;;;;;10.65;8.10;;;7.10;99.60;;;;;;5015214;28;20571;-87
2021/10/24 02:52:09;;;;;;;12.50;8.63;;;7.10;99.60;;;;;;5018251;28;20013;-86
2021/10/24 02:54:35;;;;;;;12.80;8.55;;;7.10;99.60;;;;;;5008636;28;20076;-87
2021/10/24 02:57:02;;;;;;;12.07;8.27;;;7.10;99.60;;;;;;5015345;28;20030;-87
2021/10/24 02:59:28;;;;;;;12.15;7.57;;;7.10;99.60;;;;;;5026767;28;20551;-88
2021/10/24 03:01:54;;;;;;;11.43;8.25;;;7.10;99.60;;;;;;5024406;28;20030;-88
2021/10/24 03:04:20;;;;;;;13.88;9.30;;;7.10;99.50;;;;;;5032508;28;20117;-88
2021/10/24 03:06:46;;;;;;;13.85;9.07;;;7.00;99.80;;;;;;5003921;28;20021;-88
2021/10/24 03:09:12;;;;;;;12.63;8.13;;;7.00;99.60;;;;;;5024805;28;20116;-88
2021/10/24 03:11:44;;;;;;;14.93;9.00;;;7.00;99.50;;;;;;5018960;28;20056;-87
2021/10/24 03:14:09;;;;;;;13.98;8.77;;;7.00;99.60;;;;;;5025242;28;20024;-87
2021/10/24 03:16:35;;;;;;;12.23;8.75;;;7.00;99.60;;;;;;5014516;28;20033;-87
2021/10/24 03:19:02;;;;;;;13.02;8.98;;;6.90;99.50;;;;;;5011658;28;20017;-87
2021/10/24 03:21:29;;;;;;;15.98;8.43;;;6.90;99.60;;;;;;5018031;28;20091;-87
2021/10/24 03:23:55;;;;;;;13.65;8.65;;;6.90;99.70;;;;;;5018210;28;20018;-87
2021/10/24 03:26:20;;;;;;;11.88;8.27;;;6.90;99.70;;;;;;5017861;28;20153;-87
2021/10/24 03:28:47;;;;;;;12.85;8.40;;;6.90;99.70;;;;;;5026079;28;20018;-87
2021/10/24 03:31:14;;;;;;;11.75;7.65;;;6.90;99.80;;;;;;4997309;28;20429;-87
2021/10/24 03:33:40;;;;;;;13.88;8.48;;;6.90;99.90;;;;;;5038244;28;20539;-87
2021/10/24 03:36:05;;;;;;;12.30;8.02;;;6.90;99.80;;;;;;5005064;28;20034;-87
2021/10/24 03:38:31;;;;;;;13.20;8.18;;;6.90;99.70;;;;;;5022308;28;20027;-87
2021/10/24 03:40:57;;;;;;;14.75;8.65;;;6.80;99.70;;;;;;5022957;28;20079;-87
2021/10/24 03:43:23;;;;;;;11.55;8.23;;;6.80;99.70;;;;;;5015160;28;20024;-87
2021/10/24 03:45:49;;;;;;;13.27;8.38;;;6.80;99.60;;;;;;5027428;28;20025;-85
2021/10/24 03:48:15;;;;;;;11.30;7.80;;;6.80;99.80;;;;;;5021822;28;20024;-86
2021/10/24 03:50:41;;;;;;;11.18;8.48;;;6.80;99.70;;;;;;5025197;28;20067;-85
2021/10/24 03:53:07;;;;;;;12.55;8.00;;;6.80;99.80;;;;;;5007575;28;20127;-85
2021/10/24 03:55:32;;;;;;;14.05;8.88;;;6.80;99.70;;;;;;5037153;28;20048;-85
2021/10/24 03:57:58;;;;;;;12.90;8.77;;;6.70;99.80;;;;;;5017644;28;20107;-85
2021/10/24 04:00:24;;;;;;;12.93;8.85;;;6.70;99.80;;;;;;5006409;28;20064;-85
2021/10/24 04:02:55;;;;;;;13.77;8.25;;;6.70;99.80;;;;;;5033522;28;20030;-87
2021/10/24 04:05:21;;;;;;;11.45;8.00;;;6.70;99.90;;;;;;5031202;28;20013;-87
2021/10/24 04:07:48;;;;;;;12.68;8.10;;;6.70;99.80;;;;;;5009229;28;20025;-87
2021/10/24 04:10:15;;;;;;;13.18;8.20;;;6.70;99.80;;;;;;5012566;28;20033;-87
2021/10/24 04:12:41;;;;;;;13.73;8.60;;;6.70;99.80;;;;;;5010704;28;20029;-87
2021/10/24 04:15:08;;;;;;;14.88;9.07;;;6.70;99.80;;;;;;4995088;28;20390;-87
2021/10/24 04:17:33;;;;;;;12.50;8.43;;;6.70;99.90;;;;;;5032609;28;20036;-87
2021/10/24 04:19:59;;;;;;;15.07;8.45;;;6.70;99.90;;;;;;5021382;28;20021;-87
2021/10/24 04:22:25;;;;;;;14.10;8.63;;;6.70;99.90;;;;;;5028773;28;20044;-87
2021/10/24 04:24:50;;;;;;;10.80;8.07;;;6.70;99.90;;;;;;5008010;28;20041;-87
2021/10/24 04:27:16;;;;;;;13.43;8.63;;;6.60;99.90;;;;;;5008453;28;20025;-87
2021/10/24 04:29:42;;;;;;;11.52;8.25;;;6.60;99.90;;;;;;5024747;28;20045;-87
2021/10/24 04:32:07;;;;;;;12.10;7.10;;;6.70;99.90;;;;;;5024846;28;20475;-87
2021/10/24 04:34:33;;;;;;;11.55;7.07;;;6.70;99.90;;;;;;5008574;28;20063;-87
2021/10/24 04:36:59;;;;;;;13.00;8.55;;;6.70;99.90;;;;;;5014813;28;20506;-87
2021/10/24 04:39:24;;;;;;;15.60;8.73;;;6.70;99.90;;;;;;4994465;28;20029;-87
2021/10/24 04:41:50;;;;;;;13.18;8.90;;;6.70;99.90;;;;;;5000206;28;20030;-87
2021/10/24 04:44:16;;;;;;;10.77;8.27;;;6.70;99.90;;;;;;5007156;28;20029;-88
2021/10/24 04:46:41;;;;;;;15.60;9.23;;;6.60;99.90;;;;;;5004737;28;20029;-88
2021/10/24 04:49:07;;;;;;;14.10;8.98;;;6.70;99.90;;;;;;4974447;28;20065;-88
2021/10/24 04:51:32;;;;;;;13.82;8.35;;;6.60;99.90;;;;;;4980720;28;20022;-88
2021/10/24 04:53:58;;;;;;;13.77;9.02;;;6.60;99.90;;;;;;5004505;28;20036;-88
2021/10/24 04:56:24;;;;;;;14.52;8.48;;;6.60;99.90;;;;;;5026114;28;20017;-86
2021/10/24 04:58:49;;;;;;;12.20;8.50;;;6.60;99.90;;;;;;5040781;28;20033;-86
2021/10/24 05:01:15;;;;;;;15.30;8.30;;;6.60;99.90;;;;;;5040792;28;20064;-86
2021/10/24 05:03:41;;;;;;;12.57;8.95;;;6.60;99.90;;;;;;5032169;28;20032;-85
2021/10/24 05:06:07;;;;;;;16.20;8.73;;;6.60;99.90;;;;;;5029505;28;20022;-86
2021/10/24 05:08:32;;;;;;;14.50;8.50;;;6.60;99.90;;;;;;5008648;28;20053;-88
2021/10/24 05:10:58;;;;;;;15.95;9.00;;;6.60;99.90;;;;;;5021604;28;20462;-88
2021/10/24 05:13:24;;;;;;;14.85;8.02;;;6.50;99.90;;;;;;5003586;28;20032;-82
2021/10/24 05:15:49;;;;;;;14.07;8.23;;;6.50;99.90;;;;;;5019476;28;20017;-82
2021/10/24 05:18:15;;;;;;;15.18;8.88;;;6.50;99.90;;;;;;5029190;28;20071;-83
2021/10/24 05:20:41;;;;;;;12.20;8.40;;;6.50;99.90;;;;;;5005329;28;20036;-82
2021/10/24 05:23:07;;;;;;;14.88;8.48;;;6.50;99.90;;;;;;5043809;28;20021;-82
2021/10/24 05:25:33;;;;;;;18.88;8.57;;;6.50;99.90;;;;;;5006000;28;20048;-82
2021/10/24 05:27:59;;;;;;;13.15;7.82;;;6.50;99.90;;;;;;5037883;28;20029;-82
2021/10/24 05:30:25;;;;;;;12.30;8.57;;;6.50;99.90;;;;;;5001568;28;20026;-82
2021/10/24 05:32:51;;;;;;;13.07;8.52;;;6.50;99.90;;;;;;5017420;28;20048;-82
2021/10/24 05:35:17;;;;;;;13.07;8.65;;;6.50;99.90;;;;;;5055491;28;20025;-82
2021/10/24 05:37:43;;;;;;;16.65;9.27;;;6.50;99.90;;;;;;5015314;28;20029;-82
2021/10/24 05:40:10;;;;;;;12.93;7.85;;;6.50;99.90;;;;;;5026618;28;20076;-82
2021/10/24 05:42:36;;;;;;;15.63;8.43;;;6.50;99.90;;;;;;4982855;28;20021;-82
2021/10/24 05:45:02;;;;;;;15.60;9.35;;;6.40;99.90;;;;;;5038632;28;20032;-82
2021/10/24 05:47:28;;;;;;;16.23;9.63;;;6.50;99.90;;;;;;5025618;28;20053;-82
2021/10/24 05:49:54;;;;;;;15.57;9.02;;;6.40;99.90;;;;;;4999143;28;20475;-82
2021/10/24 05:52:22;;;;;;;16.15;9.32;;;6.40;99.90;;;;;;5026496;28;20025;-82
2021/10/24 05:54:47;;;;;;;14.07;9.02;;;6.40;99.90;;;;;;5032532;28;20017;-82
2021/10/24 05:57:13;;;;;;;12.43;8.88;;;6.40;99.90;;;;;;5018769;28;20028;-82
2021/10/24 05:59:39;;;;;;;16.83;9.38;;;6.40;99.90;;;;;;5018575;28;20075;-83
2021/10/24 06:02:05;;;;;;;14.63;9.45;;;6.40;99.90;;;;;;5002365;28;20422;-82
2021/10/24 06:04:30;;;;;;;14.90;8.88;;;6.30;99.90;;;;;;5018034;28;20425;-82
2021/10/24 06:06:56;;;;;;;14.40;9.07;;;6.30;99.90;;;;;;5023319;28;20029;-82
2021/10/24 06:09:29;;;;;;;15.55;8.77;;;6.30;99.90;;;;;;4991761;28;20026;-82
2021/10/24 06:11:59;;;;;;;13.77;8.98;;;6.30;99.90;;;;;;5018344;28;20037;-87
2021/10/24 06:14:25;;;;;;;15.20;9.13;;;6.30;99.90;;;;;;5009190;28;20025;-88
2021/10/24 06:16:51;;;;;;;16.13;10.07;;;6.30;99.90;;;;;;5020875;28;20029;-87
2021/10/24 06:19:17;;;;;;;15.00;9.50;;;6.30;99.90;;;;;;5008120;28;20471;-88
2021/10/24 06:21:42;;;;;;;12.68;8.93;;;6.30;99.90;;;;;;5027404;28;20034;-88
2021/10/24 06:24:08;;;;;;;13.27;8.80;;;6.30;99.90;;;;;;5039152;28;20532;-88
2021/10/24 06:26:34;;;;;;;13.65;8.75;;;6.30;99.90;;;;;;5022713;28;20163;-87
2021/10/24 06:29:00;;;;;;;13.50;8.48;;;6.30;99.90;;;;;;5034960;28;20033;-87
2021/10/24 06:31:25;;;;;;;13.93;9.13;;;6.30;99.90;;;;;;5018692;28;20034;-87
2021/10/24 06:33:51;;;;;;;12.80;8.65;;;6.30;99.90;;;;;;5002511;28;20030;-87
2021/10/24 06:36:18;;;;;;;13.15;8.27;;;6.20;99.90;;;;;;5018963;28;20033;-87
2021/10/24 06:38:44;;;;;;;14.10;9.02;;;6.30;99.90;;;;;;5032985;28;20055;-87
2021/10/24 06:41:09;;;;;;;16.02;9.10;;;6.20;99.90;;;;;;5002878;28;20026;-87
2021/10/24 06:43:38;;;;;;;13.65;8.43;;;6.20;99.90;;;;;;4986124;28;20403;-87
2021/10/24 06:46:03;;;;;;;13.65;8.65;;;6.30;99.90;;;;;;5018868;28;20022;-87
2021/10/24 06:48:29;;;;;;;14.98;8.43;;;6.30;99.90;;;;;;5011906;28;20024;-87
2021/10/24 06:50:55;;;;;;;13.32;8.50;;;6.20;99.90;;;;;;4988632;28;20053;-87
2021/10/24 06:53:20;;;;;;;16.27;9.30;;;6.20;99.90;;;;;;5026477;28;20347;-87
2021/10/24 06:55:46;;;;;;;14.38;9.52;;;6.30;99.90;;;;;;5039109;28;20555;-88
2021/10/24 06:58:12;;;;;;;16.77;9.27;;;6.20;99.90;;;;;;4999453;28;20033;-88
2021/10/24 07:00:37;;;;;;;13.65;8.95;;;6.20;99.90;;;;;;5005435;28;20063;-88
2021/10/24 07:03:03;;;;;;;13.98;9.32;;;6.20;99.90;;;;;;4985262;28;20029;-88
2021/10/24 07:08:16;;;;;;;14.80;9.38;;;6.20;99.90;;;;;;5036155;28;20080;-86
2021/10/24 07:10:42;;;;;;;15.00;9.10;;;6.30;99.90;;;;;;5035288;28;20088;-86
2021/10/24 07:13:10;;;;;;;17.23;9.07;;;6.30;99.90;;;;;;5051639;28;20033;-86
2021/10/24 07:15:36;;;;;;;14.93;9.88;;;6.20;99.90;;;;;;5054598;28;20025;-85
2021/10/24 07:18:02;;;;;;;14.95;10.15;;;6.30;99.90;;;;;;5004547;28;20039;-85
2021/10/24 07:20:28;;;;;;;15.77;10.68;;;6.30;99.90;;;;;;4998111;28;20025;-85
2021/10/24 07:22:54;;;;;;;15.80;10.23;;;6.30;99.90;;;;;;4991382;28;20450;-85
2021/10/24 07:25:20;;;;;;;16.52;9.85;;;6.30;99.90;;;;;;4990697;28;20153;-85
2021/10/24 07:27:45;;;;;;;17.55;10.80;;;6.30;99.90;;;;;;4998131;28;20076;-86
2021/10/24 07:30:12;;;;;;;18.90;10.68;;;6.30;99.90;;;;;;4998100;28;20087;-85
2021/10/24 07:32:39;;;;;;;16.30;10.35;;;6.30;99.90;;;;;;5014955;28;20427;-86
2021/10/24 07:35:06;;;;;;;19.33;10.48;;;6.30;99.90;;;;;;4998329;28;20060;-85
2021/10/24 07:37:32;;;;;;;18.35;11.85;;;6.40;99.90;;;;;;5014565;28;20114;-87
2021/10/24 07:39:58;;;;;;;17.52;11.15;;;6.40;99.90;;;;;;5015608;28;20045;-88
2021/10/24 07:42:24;;;;;;;17.02;10.77;;;6.40;99.90;;;;;;4983301;28;20022;-88
2021/10/24 07:44:50;;;;;;;16.48;11.38;;;6.40;99.90;;;;;;5000146;28;20034;-88
2021/10/24 07:47:16;;;;;;;18.00;10.90;;;6.40;99.90;;;;;;5015981;28;20117;-88
2021/10/24 07:49:49;;;;;;;18.40;10.93;;;6.40;99.90;;;;;;5015716;28;20124;-88
2021/10/24 07:52:18;;;;;;;20.35;11.88;;;6.50;99.90;;;;;;4999839;28;20036;-88
2021/10/24 07:54:45;;;;;;;16.05;11.65;;;6.50;99.90;;;;;;5015194;28;20017;-87
2021/10/24 07:57:11;;;;;;;18.23;11.68;;;6.50;99.90;;;;;;5014282;28;20041;-88
2021/10/24 07:59:55;;;;;;;17.13;11.02;;;6.50;99.90;;;;;;4984927;28;20471;-88
2021/10/24 08:02:20;;;;;;;19.67;11.98;;;6.60;99.90;;;;;;5000014;28;20487;-88
2021/10/24 08:04:47;;;;;;;19.65;11.25;;;6.60;99.90;;;;;;4995890;28;20064;-88
2021/10/24 08:07:19;;;;;;;15.35;10.98;;;6.70;99.90;;;;;;4995211;28;20018;-88
2021/10/24 08:09:47;;;;;;;16.02;10.85;;;6.70;99.90;;;;;;4996173;28;20105;-88
2021/10/24 08:12:13;;;;;;;18.70;11.48;;;6.80;99.90;;;;;;4998487;28;20086;-88
2021/10/24 08:14:42;;;;;;;16.65;10.55;;;6.80;99.90;;;;;;4987299;28;20048;-86
2021/10/24 08:17:08;;;;;;;20.73;11.43;;;6.80;99.90;;;;;;5015238;28;20030;-86
2021/10/24 08:19:35;;;;;;;17.25;12.00;;;6.90;99.90;;;;;;4997441;28;20549;-85
2021/10/24 08:22:02;;;;;;;17.65;11.25;;;6.90;99.90;;;;;;4999614;28;20022;-86
2021/10/24 08:24:28;;;;;;;20.70;12.85;;;7.00;99.90;;;;;;5026381;28;20022;-86
2021/10/24 08:26:55;;;;;;;24.85;18.55;;;7.00;99.90;;;;;;5017005;28;20083;-86
2021/10/24 08:29:21;;;;;;;23.08;14.05;;;7.10;99.90;;;;;;5003854;28;20041;-86
2021/10/24 08:31:52;;;;;;;19.95;12.93;;;7.10;99.90;;;;;;5004844;28;20114;-85
2021/10/24 08:34:22;;;;;;;17.48;12.15;;;7.20;99.90;;;;;;5000571;28;20470;-86
2021/10/24 08:36:48;;;;;;;22.25;12.85;;;7.20;99.90;;;;;;5021700;28;20109;-85
2021/10/24 08:39:14;;;;;;;18.05;11.73;;;7.30;99.90;;;;;;5014637;28;20064;-85
2021/10/24 08:41:40;;;;;;;21.85;13.18;;;7.30;99.90;;;;;;5000590;28;20033;-86
2021/10/24 08:44:06;;;;;;;21.55;13.40;;;7.40;99.90;;;;;;5017020;28;20028;-86
2021/10/24 08:46:33;;;;;;;20.10;13.32;;;7.40;99.90;;;;;;4997304;28;20026;-85
2021/10/24 08:48:59;;;;;;;20.20;12.50;;;7.50;99.90;;;;;;5030210;28;20032;-85
2021/10/24 08:51:32;;;;;;;19.42;12.07;;;7.60;99.90;;;;;;5020169;28;20025;-85
2021/10/24 08:53:59;;;;;;;18.52;11.10;;;7.60;99.90;;;;;;5012512;28;20049;-85
2021/10/24 08:56:28;;;;;;;17.33;11.48;;;7.60;99.90;;;;;;5030683;28;20083;-86
2021/10/24 08:58:54;;;;;;;20.50;11.20;;;7.70;99.90;;;;;;5000786;28;20041;-85
2021/10/24 09:01:20;;;;;;;17.88;11.10;;;7.80;99.90;;;;;;5001364;28;20026;-85
2021/10/24 09:04:08;;;;;;;23.27;12.57;;;7.80;99.90;;;;;;5000235;28;20045;-84
2021/10/24 09:06:55;;;;;;;20.80;12.57;;;7.90;99.90;;;;;;5052652;28;20478;-85
2021/10/24 09:09:31;;;;;;;17.33;11.30;;;7.90;99.90;;;;;;5048135;28;20032;-86
2021/10/24 09:11:57;;;;;;;20.05;11.60;;;8.00;99.90;;;;;;5045229;28;20108;-85
2021/10/24 09:14:46;;;;;;;17.70;11.32;;;8.10;99.90;;;;;;5048166;28;20053;-86
2021/10/24 09:17:18;;;;;;;17.58;10.82;;;8.10;99.90;;;;;;5043474;28;20099;-86
2021/10/24 09:19:46;;;;;;;14.95;11.07;;;8.20;99.90;;;;;;5022828;28;20052;-86
2021/10/24 09:22:27;;;;;;;18.48;11.15;;;8.30;99.90;;;;;;5012526;28;20021;-85
2021/10/24 09:25:07;;;;;;;18.08;10.95;;;8.40;99.90;;;;;;5037549;28;20042;-86
2021/10/24 09:27:43;;;;;;;15.95;10.45;;;8.50;99.90;;;;;;5019967;28;20017;-86
2021/10/24 09:30:23;;;;;;;16.10;9.95;;;8.50;99.90;;;;;;5031420;28;20025;-86
2021/10/24 09:32:52;;;;;;;17.92;10.90;;;8.60;99.90;;;;;;5030223;28;20537;-86
2021/10/24 09:35:47;;;;;;;13.48;9.68;;;8.70;99.90;;;;;;5022112;28;20021;-87
2021/10/24 09:38:17;;;;;;;17.42;10.50;;;8.70;99.90;;;;;;5030394;28;20492;-85
2021/10/24 09:40:48;;;;;;;15.15;9.98;;;8.80;99.90;;;;;;5027405;28;20482;-86
2021/10/24 09:43:33;;;;;;;;;;;8.90;99.90;;;;;;5030544;28;20029;-86
2021/10/24 09:45:59;;;;;;;16.63;9.85;;;9.00;99.90;;;;;;5030285;28;21307;-86
2021/10/24 09:48:29;;;;;;;13.18;9.07;;;9.00;99.90;;;;;;5041919;28;20020;-83
2021/10/24 09:50:59;;;;;;;18.97;10.23;;;9.10;99.90;;;;;;5049618;28;20021;-83
2021/10/24 09:53:29;;;;;;;13.30;9.25;;;9.20;99.90;;;;;;5030153;28;20021;-80
2021/10/24 09:55:55;;;;;;;14.20;10.00;;;9.30;99.90;;;;;;5034150;28;20108;-81
2021/10/24 09:58:43;;;;;;;14.60;9.38;;;9.40;99.90;;;;;;5009488;28;20065;-81
2021/10/24 10:01:13;;;;;;;17.92;8.82;;;9.50;99.90;;;;;;5049583;28;20032;-80
2021/10/24 10:03:43;;;;;;;13.75;9.43;;;9.60;99.90;;;;;;5034577;28;20407;-82
2021/10/24 10:06:09;;;;;;;15.30;10.03;;;9.70;99.90;;;;;;5034455;28;20014;-82
2021/10/24 10:08:43;;;;;;;13.40;8.68;;;9.70;99.90;;;;;;5028771;28;20083;-83
2021/10/24 10:11:30;;;;;;;14.07;9.70;;;9.90;99.90;;;;;;5031821;28;20120;-82
2021/10/24 10:14:13;;;;;;;17.40;10.05;;;10.00;99.90;;;;;;5034416;28;20113;-82
2021/10/24 10:16:45;;;;;;;15.65;9.40;;;10.10;99.90;;;;;;5035244;28;20040;-82
2021/10/24 10:19:13;;;;;;;15.38;9.75;;;10.10;99.80;;;;;;5025285;28;20056;-82
2021/10/24 10:21:47;;;;;;;17.05;10.13;;;10.20;99.90;;;;;;5017673;28;20010;-82
2021/10/24 10:24:34;;;;;;;18.38;9.80;;;10.30;99.90;;;;;;5018265;28;20021;-82
2021/10/24 10:27:34;;;;;;;17.60;10.52;;;10.40;99.60;;;;;;5028917;28;20123;-82
2021/10/24 10:30:00;;;;;;;17.33;10.25;;;10.50;99.00;;;;;;5037446;28;20040;-81
2021/10/24 10:32:41;;;;;;;15.48;10.02;;;10.60;99.30;;;;;;5028071;28;20030;-83
2021/10/24 10:35:07;;;;;;;18.38;10.70;;;10.70;98.90;;;;;;5049868;28;20029;-85
2021/10/24 10:37:51;;;;;;;16.20;9.15;;;10.80;98.50;;;;;;5036338;28;20474;-87
2021/10/24 10:40:47;;;;;;;12.88;8.35;;;10.90;98.80;;;;;;5021919;28;20025;-87
2021/10/24 10:43:18;;;;;;;15.20;8.82;;;11.00;98.60;;;;;;5018073;28;20505;-87
2021/10/24 10:45:44;;;;;;;;;;;11.10;98.00;;;;;;5026177;28;20021;-87
2021/10/24 10:48:40;;;;;;;11.98;7.50;;;11.20;98.60;;;;;;5035153;28;19909;-87
2021/10/24 10:51:26;;;;;;;11.07;7.65;;;11.20;98.70;;;;;;5018566;28;20022;-87
2021/10/24 10:53:56;;;;;;;11.70;7.32;;;11.40;98.00;;;;;;5002696;28;20475;-86
2021/10/24 10:56:30;;;;;;;14.02;8.40;;;11.40;97.80;;;;;;5018441;28;20083;-87
2021/10/24 10:59:04;;;;;;;12.57;8.23;;;11.60;98.30;;;;;;5023201;28;20024;-86
2021/10/24 11:01:42;;;;;;;12.55;7.65;;;11.70;97.80;;;;;;5054348;28;20059;-87
2021/10/24 11:04:07;;;;;;;12.40;6.75;;;11.80;96.90;;;;;;5013526;28;20075;-87
2021/10/24 11:06:39;;;;;;;12.18;7.75;;;11.90;97.20;;;;;;5005400;28;20125;-87
2021/10/24 11:09:11;;;;;;;13.63;6.97;;;12.00;96.30;;;;;;5020447;28;20022;-88
2021/10/24 11:11:40;;;;;;;10.55;6.68;;;12.10;97.30;;;;;;5014007;28;20084;-88
2021/10/24 11:14:14;;;;;;;13.20;7.72;;;12.20;97.50;;;;;;5022417;28;20025;-88
2021/10/24 11:17:00;;;;;;;13.85;7.35;;;12.30;95.50;;;;;;5034165;28;20034;-86
2021/10/24 11:19:28;;;;;;;10.48;7.05;;;12.40;96.00;;;;;;5030786;28;20112;-85
2021/10/24 11:22:18;;;;;;;15.10;7.38;;;12.40;96.60;;;;;;5029782;28;20026;-85
2021/10/24 11:25:22;;;;;;;10.27;6.57;;;12.60;96.60;;;;;;5027495;28;20025;-86
2021/10/24 11:27:49;;;;;;;9.38;6.38;;;12.70;94.90;;;;;;5010606;28;20098;-86
2021/10/24 11:30:17;;;;;;;8.77;6.15;;;12.80;96.20;;;;;;5026113;28;20024;-85
2021/10/24 11:32:43;;;;;;;11.02;6.43;;;12.90;96.60;;;;;;5012474;28;20386;-85
2021/10/24 11:35:09;;;;;;;10.48;6.55;;;13.00;96.30;;;;;;5020407;28;20026;-85
2021/10/24 11:37:38;;;;;;;11.02;6.60;;;13.10;94.50;;;;;;5037440;28;20025;-85
2021/10/24 11:40:09;;;;;;;11.90;6.57;;;13.20;94.00;;;;;;5034982;28;20124;-86
2021/10/24 11:42:39;;;;;;;10.65;7.25;;;13.20;95.00;;;;;;5014340;28;20462;-86
2021/10/24 11:45:24;;;;;;;9.80;6.65;;;13.30;93.90;;;;;;5023523;28;20021;-85
2021/10/24 11:48:17;;;;;;;11.23;6.25;;;13.40;93.70;;;;;;5030059;28;20028;-85
2021/10/24 11:50:49;;;;;;;9.15;6.15;;;13.50;94.40;;;;;;5019224;28;20082;-86
2021/10/24 11:53:27;;;;;;;10.77;5.68;;;13.60;93.10;;;;;;5032215;28;20029;-87
2021/10/24 11:56:20;;;;;;;9.20;5.82;;;13.70;94.40;;;;;;5004597;28;20383;-88
2021/10/24 12:01:34;;;;;;;8.80;5.15;;;13.80;91.20;;;;;;5021635;28;20068;-87
2021/10/24 12:04:11;;;;;;;7.93;5.32;;;13.90;92.60;;;;;;5017893;28;20029;-87
2021/10/24 12:06:57;;;;;;;9.88;5.43;;;13.90;92.50;;;;;;5015110;28;20033;-87
2021/10/24 12:09:50;;;;;;;8.93;5.93;;;14.00;92.20;;;;;;5002236;28;20064;-87
2021/10/24 12:12:22;;;;;;;9.93;5.75;;;14.10;90.90;;;;;;5030050;28;20026;-87
2021/10/24 12:15:06;;;;;;;8.38;5.43;;;14.20;92.70;;;;;;5037921;28;20026;-88
2021/10/24 12:17:36;;;;;;;9.98;5.90;;;14.30;92.90;;;;;;5022641;28;20097;-88
2021/10/24 12:20:25;;;;;;;8.38;5.20;;;14.30;92.00;;;;;;5021080;28;20021;-89
2021/10/24 12:22:55;;;;;;;9.27;5.63;;;14.40;91.40;;;;;;5005975;28;20071;-89
2021/10/24 12:25:41;;;;;;;9.23;5.40;;;14.50;92.10;;;;;;5023819;28;20075;-88
2021/10/24 12:28:29;;;;;;;8.48;5.05;;;14.60;92.40;;;;;;5027957;28;20028;-85
2021/10/24 12:30:58;;;;;;;8.50;5.53;;;14.70;91.50;;;;;;5020865;28;20032;-84
2021/10/24 12:33:38;;;;;;;9.88;5.57;;;14.70;91.90;;;;;;5035597;28;20064;-88
2021/10/24 12:36:07;;;;;;;8.98;5.00;;;14.80;91.40;;;;;;5017666;28;20036;-88
2021/10/24 12:38:59;;;;;;;10.02;5.45;;;14.90;91.00;;;;;;5025477;28;20014;-82
2021/10/24 12:41:38;;;;;;;9.82;5.40;;;14.90;89.40;;;;;;5066920;22;20061;-93
2021/10/24 12:44:15;;;;;;;10.68;6.07;;;15.00;88.70;;;;;;5053134;28;20029;-87
2021/10/24 12:46:42;;;;;;;8.40;5.68;;;15.00;89.50;;;;;;5056579;28;20143;-87
2021/10/24 12:49:16;;;;;;;8.68;5.53;;;15.00;88.80;;;;;;5039704;28;20355;-88
2021/10/24 12:51:44;;;;;;;10.23;6.55;;;15.00;88.10;;;;;;5057928;28;20024;-88
2021/10/24 12:54:11;;;;;;;8.80;4.93;;;15.10;88.60;;;;;;5056269;28;20029;-88
2021/10/24 12:56:40;;;;;;;8.55;5.90;;;15.10;90.60;;;;;;5055920;28;20059;-88
2021/10/24 12:59:06;;;;;;;9.27;5.30;;;15.20;90.00;;;;;;5054500;28;20055;-88